sensor_id;sensor_type;location;lat;lon;timestamp;temperature;humidity
780;DHT22;373;49.342;8.146;2023-12-22T00:01:55;9.60;99.90
780;DHT22;373;49.342;8.146;2023-12-22T00:04:22;9.60;99.90
780;DHT22;373;49.342;8.146;2023-12-22T00:06:49;9.60;99.90
780;DHT22;373;49.342;8.146;2023-12-22T00:09:19;9.70;99.90
780;DHT22;373;49.342;8.146;2023-12-22T00:11:46;9.60;1.00
780;DHT22;373;49.342;8.146;2023-12-22T00:14:13;9.60;99.90
780;DHT22;373;49.342;8.146;2023-12-22T00:16:40;9.70;56.80
780;DHT22;373;49.342;8.146;2023-12-22T00:19:07;9.70;1.00
780;DHT22;373;49.342;8.146;2023-12-22T00:21:34;9.60;99.90
780;DHT22;373;49.342;8.146;2023-12-22T00:24:01;9.60;99.90
780;DHT22;373;49.342;8.146;2023-12-22T00:26:30;9.70;70.60
780;DHT22;373;49.342;8.146;2023-12-22T00:28:57;9.60;1.00
780;DHT22;373;49.342;8.146;2023-12-22T00:31:24;9.70;1.00
780;DHT22;373;49.342;8.146;2023-12-22T00:33:51;9.70;1.00
780;DHT22;373;49.342;8.146;2023-12-22T00:36:18;9.70;99.90
780;DHT22;373;49.342;8.146;2023-12-22T00:38:48;9.70;1.00
780;DHT22;373;49.342;8.146;2023-12-22T00:41:15;9.70;99.90
780;DHT22;373;49.342;8.146;2023-12-22T00:43:44;9.70;1.00
780;DHT22;373;49.342;8.146;2023-12-22T00:46:11;9.70;99.90
780;DHT22;373;49.342;8.146;2023-12-22T00:48:38;9.60;1.00
780;DHT22;373;49.342;8.146;2023-12-22T00:51:05;9.60;1.00
780;DHT22;373;49.342;8.146;2023-12-22T00:53:33;9.70;1.00
780;DHT22;373;49.342;8.146;2023-12-22T00:56:00;9.70;1.00
780;DHT22;373;49.342;8.146;2023-12-22T00:58:28;9.80;99.90
780;DHT22;373;49.342;8.146;2023-12-22T01:00:57;9.80;1.00
780;DHT22;373;49.342;8.146;2023-12-22T01:03:24;9.90;1.00
780;DHT22;373;49.342;8.146;2023-12-22T01:05:51;9.80;1.00
780;DHT22;373;49.342;8.146;2023-12-22T01:08:18;9.80;1.00
780;DHT22;373;49.342;8.146;2023-12-22T01:10:46;9.80;99.90
780;DHT22;373;49.342;8.146;2023-12-22T01:13:13;9.70;99.90
780;DHT22;373;49.342;8.146;2023-12-22T01:15:40;9.80;1.00
780;DHT22;373;49.342;8.146;2023-12-22T01:18:10;9.90;99.90
780;DHT22;373;49.342;8.146;2023-12-22T01:20:37;9.80;99.90
780;DHT22;373;49.342;8.146;2023-12-22T01:23:04;9.60;99.90
780;DHT22;373;49.342;8.146;2023-12-22T01:25:31;9.70;99.90
780;DHT22;373;49.342;8.146;2023-12-22T01:27:58;9.60;99.90
780;DHT22;373;49.342;8.146;2023-12-22T01:30:25;9.60;1.00
780;DHT22;373;49.342;8.146;2023-12-22T01:32:52;9.70;99.90
780;DHT22;373;49.342;8.146;2023-12-22T01:35:21;9.70;99.90
780;DHT22;373;49.342;8.146;2023-12-22T01:37:48;9.60;99.90
780;DHT22;373;49.342;8.146;2023-12-22T01:40:15;9.50;1.00
780;DHT22;373;49.342;8.146;2023-12-22T01:42:42;9.70;99.90
780;DHT22;373;49.342;8.146;2023-12-22T01:45:09;9.60;99.90
780;DHT22;373;49.342;8.146;2023-12-22T01:47:36;9.60;22.40
780;DHT22;373;49.342;8.146;2023-12-22T01:50:04;9.50;99.90
780;DHT22;373;49.342;8.146;2023-12-22T01:52:33;9.50;99.90
780;DHT22;373;49.342;8.146;2023-12-22T01:55:00;9.60;1.00
780;DHT22;373;49.342;8.146;2023-12-22T01:57:28;9.60;39.80
780;DHT22;373;49.342;8.146;2023-12-22T01:59:56;9.60;93.10
780;DHT22;373;49.342;8.146;2023-12-22T02:02:24;9.60;6.00
780;DHT22;373;49.342;8.146;2023-12-22T02:04:51;9.90;99.90
780;DHT22;373;49.342;8.146;2023-12-22T02:07:18;9.80;51.50
780;DHT22;373;49.342;8.146;2023-12-22T02:09:46;9.70;98.60
780;DHT22;373;49.342;8.146;2023-12-22T02:12:13;9.70;99.90
780;DHT22;373;49.342;8.146;2023-12-22T02:14:40;9.70;1.00
780;DHT22;373;49.342;8.146;2023-12-22T02:17:15;9.70;99.90
780;DHT22;373;49.342;8.146;2023-12-22T02:19:48;9.80;99.90
780;DHT22;373;49.342;8.146;2023-12-22T02:22:15;9.80;1.00
780;DHT22;373;49.342;8.146;2023-12-22T02:24:44;9.60;99.90
780;DHT22;373;49.342;8.146;2023-12-22T02:27:21;9.50;1.00
780;DHT22;373;49.342;8.146;2023-12-22T02:29:52;9.50;99.90
780;DHT22;373;49.342;8.146;2023-12-22T02:32:25;9.60;1.00
780;DHT22;373;49.342;8.146;2023-12-22T02:34:55;9.60;1.00
780;DHT22;373;49.342;8.146;2023-12-22T02:37:23;9.40;24.30
780;DHT22;373;49.342;8.146;2023-12-22T02:39:52;9.50;99.90
780;DHT22;373;49.342;8.146;2023-12-22T02:42:21;9.40;99.90
780;DHT22;373;49.342;8.146;2023-12-22T02:44:56;9.50;99.90
780;DHT22;373;49.342;8.146;2023-12-22T02:47:23;9.60;1.00
780;DHT22;373;49.342;8.146;2023-12-22T02:49:50;9.60;88.80
780;DHT22;373;49.342;8.146;2023-12-22T02:52:17;9.60;99.90
780;DHT22;373;49.342;8.146;2023-12-22T02:54:44;9.70;1.00
780;DHT22;373;49.342;8.146;2023-12-22T02:57:14;9.50;1.00
780;DHT22;373;49.342;8.146;2023-12-22T02:59:41;9.50;1.00
780;DHT22;373;49.342;8.146;2023-12-22T03:02:08;9.50;1.00
780;DHT22;373;49.342;8.146;2023-12-22T03:04:35;9.60;1.00
780;DHT22;373;49.342;8.146;2023-12-22T03:07:02;9.60;78.30
780;DHT22;373;49.342;8.146;2023-12-22T03:09:29;9.70;44.30
780;DHT22;373;49.342;8.146;2023-12-22T03:11:56;9.80;99.90
780;DHT22;373;49.342;8.146;2023-12-22T03:14:28;9.70;99.90
780;DHT22;373;49.342;8.146;2023-12-22T03:16:56;9.70;99.90
780;DHT22;373;49.342;8.146;2023-12-22T03:19:22;9.70;99.90
780;DHT22;373;49.342;8.146;2023-12-22T03:21:49;9.70;1.00
780;DHT22;373;49.342;8.146;2023-12-22T03:24:17;9.60;99.90
780;DHT22;373;49.342;8.146;2023-12-22T03:26:45;9.50;1.00
780;DHT22;373;49.342;8.146;2023-12-22T03:29:12;9.40;99.90
780;DHT22;373;49.342;8.146;2023-12-22T03:31:40;9.20;99.90
780;DHT22;373;49.342;8.146;2023-12-22T03:34:07;9.20;1.00
780;DHT22;373;49.342;8.146;2023-12-22T03:36:34;9.10;81.50
780;DHT22;373;49.342;8.146;2023-12-22T03:39:02;9.10;99.90
780;DHT22;373;49.342;8.146;2023-12-22T03:41:29;9.10;99.90
780;DHT22;373;49.342;8.146;2023-12-22T03:43:57;9.00;99.90
780;DHT22;373;49.342;8.146;2023-12-22T03:46:24;9.00;99.90
780;DHT22;373;49.342;8.146;2023-12-22T03:48:52;8.90;1.00
780;DHT22;373;49.342;8.146;2023-12-22T03:51:19;8.90;99.90
780;DHT22;373;49.342;8.146;2023-12-22T03:53:46;9.00;1.00
780;DHT22;373;49.342;8.146;2023-12-22T03:56:13;8.90;1.00
780;DHT22;373;49.342;8.146;2023-12-22T03:58:40;8.80;1.00
780;DHT22;373;49.342;8.146;2023-12-22T04:01:07;8.90;1.00
780;DHT22;373;49.342;8.146;2023-12-22T04:03:34;8.90;99.90
780;DHT22;373;49.342;8.146;2023-12-22T04:06:03;8.90;99.90
780;DHT22;373;49.342;8.146;2023-12-22T04:08:30;9.00;1.00
780;DHT22;373;49.342;8.146;2023-12-22T04:10:57;9.00;99.90
780;DHT22;373;49.342;8.146;2023-12-22T04:13:24;9.10;99.90
780;DHT22;373;49.342;8.146;2023-12-22T04:15:51;9.10;99.90
780;DHT22;373;49.342;8.146;2023-12-22T04:18:18;9.20;1.00
780;DHT22;373;49.342;8.146;2023-12-22T04:20:45;8.90;1.00
780;DHT22;373;49.342;8.146;2023-12-22T04:23:16;8.90;1.00
780;DHT22;373;49.342;8.146;2023-12-22T04:25:43;9.00;1.00
780;DHT22;373;49.342;8.146;2023-12-22T04:28:10;9.10;99.90
780;DHT22;373;49.342;8.146;2023-12-22T04:30:37;9.10;99.90
780;DHT22;373;49.342;8.146;2023-12-22T04:33:04;9.10;99.90
780;DHT22;373;49.342;8.146;2023-12-22T04:35:31;9.10;1.00
780;DHT22;373;49.342;8.146;2023-12-22T04:37:58;9.10;99.90
780;DHT22;373;49.342;8.146;2023-12-22T04:40:27;9.20;99.90
780;DHT22;373;49.342;8.146;2023-12-22T04:42:54;9.00;99.90
780;DHT22;373;49.342;8.146;2023-12-22T04:45:21;9.00;99.90
780;DHT22;373;49.342;8.146;2023-12-22T04:47:48;9.00;99.90
780;DHT22;373;49.342;8.146;2023-12-22T04:50:15;9.10;75.00
780;DHT22;373;49.342;8.146;2023-12-22T04:52:42;9.00;99.90
780;DHT22;373;49.342;8.146;2023-12-22T04:55:09;9.10;99.90
780;DHT22;373;49.342;8.146;2023-12-22T04:57:38;9.10;99.90
780;DHT22;373;49.342;8.146;2023-12-22T05:00:06;9.20;99.90
780;DHT22;373;49.342;8.146;2023-12-22T05:02:33;9.20;52.90
780;DHT22;373;49.342;8.146;2023-12-22T05:05:00;9.20;1.00
780;DHT22;373;49.342;8.146;2023-12-22T05:07:28;9.20;1.00
780;DHT22;373;49.342;8.146;2023-12-22T05:09:56;9.20;1.00
780;DHT22;373;49.342;8.146;2023-12-22T05:12:23;9.40;99.90
780;DHT22;373;49.342;8.146;2023-12-22T05:14:51;9.40;1.00
780;DHT22;373;49.342;8.146;2023-12-22T05:17:18;9.30;1.00
780;DHT22;373;49.342;8.146;2023-12-22T05:19:45;9.30;99.90
780;DHT22;373;49.342;8.146;2023-12-22T05:22:13;9.40;1.00
780;DHT22;373;49.342;8.146;2023-12-22T05:24:40;9.50;99.90
780;DHT22;373;49.342;8.146;2023-12-22T05:27:07;9.40;99.90
780;DHT22;373;49.342;8.146;2023-12-22T05:29:34;9.30;89.10
780;DHT22;373;49.342;8.146;2023-12-22T05:32:03;9.30;1.00
780;DHT22;373;49.342;8.146;2023-12-22T05:34:30;9.40;1.00
780;DHT22;373;49.342;8.146;2023-12-22T05:36:57;9.40;1.00
780;DHT22;373;49.342;8.146;2023-12-22T05:39:24;9.50;99.90
780;DHT22;373;49.342;8.146;2023-12-22T05:41:51;9.50;91.40
780;DHT22;373;49.342;8.146;2023-12-22T05:44:18;9.60;99.90
780;DHT22;373;49.342;8.146;2023-12-22T05:46:45;9.70;1.00
780;DHT22;373;49.342;8.146;2023-12-22T05:49:13;9.80;99.90
780;DHT22;373;49.342;8.146;2023-12-22T05:51:41;9.70;1.00
780;DHT22;373;49.342;8.146;2023-12-22T05:54:08;9.70;1.00
780;DHT22;373;49.342;8.146;2023-12-22T05:56:36;9.60;99.90
780;DHT22;373;49.342;8.146;2023-12-22T05:59:03;9.70;1.00
780;DHT22;373;49.342;8.146;2023-12-22T06:01:30;9.80;1.00
780;DHT22;373;49.342;8.146;2023-12-22T06:03:57;9.70;99.90
780;DHT22;373;49.342;8.146;2023-12-22T06:06:26;9.70;99.90
780;DHT22;373;49.342;8.146;2023-12-22T06:08:54;9.80;1.00
780;DHT22;373;49.342;8.146;2023-12-22T06:11:21;9.70;1.00
780;DHT22;373;49.342;8.146;2023-12-22T06:13:48;9.70;1.00
780;DHT22;373;49.342;8.146;2023-12-22T06:16:16;9.60;99.90
780;DHT22;373;49.342;8.146;2023-12-22T06:18:44;9.70;1.00
780;DHT22;373;49.342;8.146;2023-12-22T06:21:11;9.60;99.90
780;DHT22;373;49.342;8.146;2023-12-22T06:23:40;9.60;66.10
780;DHT22;373;49.342;8.146;2023-12-22T06:26:10;9.60;38.60
780;DHT22;373;49.342;8.146;2023-12-22T06:28:37;9.60;1.00
780;DHT22;373;49.342;8.146;2023-12-22T06:31:05;9.60;1.00
780;DHT22;373;49.342;8.146;2023-12-22T06:33:32;9.60;1.00
780;DHT22;373;49.342;8.146;2023-12-22T06:36:00;9.70;1.00
780;DHT22;373;49.342;8.146;2023-12-22T06:38:27;9.50;1.00
780;DHT22;373;49.342;8.146;2023-12-22T06:40:56;9.50;1.00
780;DHT22;373;49.342;8.146;2023-12-22T06:43:23;9.50;1.00
780;DHT22;373;49.342;8.146;2023-12-22T06:45:50;9.50;1.00
780;DHT22;373;49.342;8.146;2023-12-22T06:48:20;9.40;1.00
780;DHT22;373;49.342;8.146;2023-12-22T06:50:47;9.50;60.10
780;DHT22;373;49.342;8.146;2023-12-22T06:53:14;9.50;1.00
780;DHT22;373;49.342;8.146;2023-12-22T06:55:41;9.40;99.90
780;DHT22;373;49.342;8.146;2023-12-22T06:58:10;9.50;99.90
780;DHT22;373;49.342;8.146;2023-12-22T07:00:37;9.50;99.90
780;DHT22;373;49.342;8.146;2023-12-22T07:03:04;9.50;99.90
780;DHT22;373;49.342;8.146;2023-12-22T07:05:34;9.40;99.90
780;DHT22;373;49.342;8.146;2023-12-22T07:08:05;9.60;91.00
780;DHT22;373;49.342;8.146;2023-12-22T07:10:32;9.50;99.90
780;DHT22;373;49.342;8.146;2023-12-22T07:12:59;9.50;47.00
780;DHT22;373;49.342;8.146;2023-12-22T07:15:28;9.40;1.00
780;DHT22;373;49.342;8.146;2023-12-22T07:17:55;9.30;1.00
780;DHT22;373;49.342;8.146;2023-12-22T07:20:22;9.40;1.00
780;DHT22;373;49.342;8.146;2023-12-22T07:22:49;9.50;1.00
780;DHT22;373;49.342;8.146;2023-12-22T07:25:18;9.50;16.00
780;DHT22;373;49.342;8.146;2023-12-22T07:27:45;9.50;99.90
780;DHT22;373;49.342;8.146;2023-12-22T07:30:16;9.40;99.90
780;DHT22;373;49.342;8.146;2023-12-22T07:32:45;9.40;1.00
780;DHT22;373;49.342;8.146;2023-12-22T07:35:15;9.30;99.90
780;DHT22;373;49.342;8.146;2023-12-22T07:37:46;9.20;1.00
780;DHT22;373;49.342;8.146;2023-12-22T07:40:13;9.20;1.00
780;DHT22;373;49.342;8.146;2023-12-22T07:42:43;9.20;1.00
780;DHT22;373;49.342;8.146;2023-12-22T07:45:10;9.20;1.00
780;DHT22;373;49.342;8.146;2023-12-22T07:47:40;9.20;1.00
780;DHT22;373;49.342;8.146;2023-12-22T07:50:09;9.20;1.00
780;DHT22;373;49.342;8.146;2023-12-22T07:52:36;9.20;1.00
780;DHT22;373;49.342;8.146;2023-12-22T07:55:06;9.30;1.00
780;DHT22;373;49.342;8.146;2023-12-22T07:57:33;9.30;1.00
780;DHT22;373;49.342;8.146;2023-12-22T08:00:00;9.50;99.90
780;DHT22;373;49.342;8.146;2023-12-22T08:02:38;9.50;99.90
780;DHT22;373;49.342;8.146;2023-12-22T08:05:05;9.40;99.90
780;DHT22;373;49.342;8.146;2023-12-22T08:07:33;9.50;99.90
780;DHT22;373;49.342;8.146;2023-12-22T08:10:00;9.60;99.90
780;DHT22;373;49.342;8.146;2023-12-22T08:12:28;9.50;1.00
780;DHT22;373;49.342;8.146;2023-12-22T08:14:57;9.50;1.00
780;DHT22;373;49.342;8.146;2023-12-22T08:17:25;9.60;68.70
780;DHT22;373;49.342;8.146;2023-12-22T08:19:53;9.60;1.00
780;DHT22;373;49.342;8.146;2023-12-22T08:22:20;9.60;99.90
780;DHT22;373;49.342;8.146;2023-12-22T08:24:49;9.60;1.00
780;DHT22;373;49.342;8.146;2023-12-22T08:27:16;9.60;1.00
780;DHT22;373;49.342;8.146;2023-12-22T08:29:43;9.60;99.90
780;DHT22;373;49.342;8.146;2023-12-22T08:32:10;9.80;1.00
780;DHT22;373;49.342;8.146;2023-12-22T08:34:37;9.80;1.00
780;DHT22;373;49.342;8.146;2023-12-22T08:37:04;9.80;1.00
780;DHT22;373;49.342;8.146;2023-12-22T08:39:31;9.70;1.00
780;DHT22;373;49.342;8.146;2023-12-22T08:41:59;9.90;1.00
780;DHT22;373;49.342;8.146;2023-12-22T08:44:26;9.80;1.00
780;DHT22;373;49.342;8.146;2023-12-22T08:46:53;9.80;1.00
780;DHT22;373;49.342;8.146;2023-12-22T08:49:20;9.80;1.00
780;DHT22;373;49.342;8.146;2023-12-22T08:51:48;9.90;1.00
780;DHT22;373;49.342;8.146;2023-12-22T08:54:15;10.00;1.00
780;DHT22;373;49.342;8.146;2023-12-22T08:56:42;10.00;99.90
780;DHT22;373;49.342;8.146;2023-12-22T08:59:10;9.90;1.00
780;DHT22;373;49.342;8.146;2023-12-22T09:01:37;9.90;1.00
780;DHT22;373;49.342;8.146;2023-12-22T09:04:06;9.90;1.00
780;DHT22;373;49.342;8.146;2023-12-22T09:06:33;10.00;32.10
780;DHT22;373;49.342;8.146;2023-12-22T09:09:00;10.10;99.90
780;DHT22;373;49.342;8.146;2023-12-22T09:11:29;10.00;90.20
780;DHT22;373;49.342;8.146;2023-12-22T09:13:56;10.00;99.90
780;DHT22;373;49.342;8.146;2023-12-22T09:16:25;10.00;30.30
780;DHT22;373;49.342;8.146;2023-12-22T09:18:52;10.10;1.00
780;DHT22;373;49.342;8.146;2023-12-22T09:21:19;10.00;99.90
780;DHT22;373;49.342;8.146;2023-12-22T09:23:46;10.10;99.90
780;DHT22;373;49.342;8.146;2023-12-22T09:26:13;10.10;99.90
780;DHT22;373;49.342;8.146;2023-12-22T09:28:41;10.30;99.90
780;DHT22;373;49.342;8.146;2023-12-22T09:31:08;10.10;48.70
780;DHT22;373;49.342;8.146;2023-12-22T09:33:37;10.10;99.90
780;DHT22;373;49.342;8.146;2023-12-22T09:36:06;10.30;1.00
780;DHT22;373;49.342;8.146;2023-12-22T09:38:33;10.30;1.00
780;DHT22;373;49.342;8.146;2023-12-22T09:41:00;10.30;1.00
780;DHT22;373;49.342;8.146;2023-12-22T09:43:27;10.30;1.00
780;DHT22;373;49.342;8.146;2023-12-22T09:45:55;10.20;99.90
780;DHT22;373;49.342;8.146;2023-12-22T09:48:23;10.30;99.90
780;DHT22;373;49.342;8.146;2023-12-22T09:50:55;10.20;1.00
780;DHT22;373;49.342;8.146;2023-12-22T09:53:24;10.20;1.00
780;DHT22;373;49.342;8.146;2023-12-22T09:55:51;10.30;1.00
780;DHT22;373;49.342;8.146;2023-12-22T09:58:20;10.20;99.90
780;DHT22;373;49.342;8.146;2023-12-22T10:00:48;10.30;1.00
780;DHT22;373;49.342;8.146;2023-12-22T10:03:16;10.30;99.90
780;DHT22;373;49.342;8.146;2023-12-22T10:05:45;10.30;1.00
780;DHT22;373;49.342;8.146;2023-12-22T10:08:14;10.30;99.90
780;DHT22;373;49.342;8.146;2023-12-22T10:10:42;10.30;1.00
780;DHT22;373;49.342;8.146;2023-12-22T10:13:10;10.30;99.90
780;DHT22;373;49.342;8.146;2023-12-22T10:15:39;10.40;1.00
780;DHT22;373;49.342;8.146;2023-12-22T10:18:09;10.40;99.90
780;DHT22;373;49.342;8.146;2023-12-22T10:20:36;10.30;99.90
780;DHT22;373;49.342;8.146;2023-12-22T10:23:03;10.40;1.00
780;DHT22;373;49.342;8.146;2023-12-22T10:25:31;10.50;99.90
780;DHT22;373;49.342;8.146;2023-12-22T10:27:59;10.50;6.40
780;DHT22;373;49.342;8.146;2023-12-22T10:30:26;10.60;99.90
780;DHT22;373;49.342;8.146;2023-12-22T10:32:54;10.60;1.00
780;DHT22;373;49.342;8.146;2023-12-22T10:35:22;10.50;1.00
780;DHT22;373;49.342;8.146;2023-12-22T10:37:49;10.50;99.90
780;DHT22;373;49.342;8.146;2023-12-22T10:40:19;10.50;26.30
780;DHT22;373;49.342;8.146;2023-12-22T10:42:48;10.50;1.00
780;DHT22;373;49.342;8.146;2023-12-22T10:45:15;10.60;1.00
780;DHT22;373;49.342;8.146;2023-12-22T10:47:44;10.60;1.00
780;DHT22;373;49.342;8.146;2023-12-22T10:50:12;10.70;65.30
780;DHT22;373;49.342;8.146;2023-12-22T10:52:40;10.70;1.00
780;DHT22;373;49.342;8.146;2023-12-22T10:55:07;10.60;99.90
780;DHT22;373;49.342;8.146;2023-12-22T10:57:34;10.60;1.00
780;DHT22;373;49.342;8.146;2023-12-22T11:00:06;10.70;1.00
780;DHT22;373;49.342;8.146;2023-12-22T11:02:35;10.70;1.00
780;DHT22;373;49.342;8.146;2023-12-22T11:05:04;10.70;99.90
780;DHT22;373;49.342;8.146;2023-12-22T11:07:33;10.70;99.90
780;DHT22;373;49.342;8.146;2023-12-22T11:10:03;10.60;99.90
780;DHT22;373;49.342;8.146;2023-12-22T11:12:32;10.70;99.90
780;DHT22;373;49.342;8.146;2023-12-22T11:15:00;10.80;99.90
780;DHT22;373;49.342;8.146;2023-12-22T11:17:30;10.80;99.90
780;DHT22;373;49.342;8.146;2023-12-22T11:19:59;10.60;99.90
780;DHT22;373;49.342;8.146;2023-12-22T11:22:26;10.60;99.90
780;DHT22;373;49.342;8.146;2023-12-22T11:24:54;10.60;99.90
780;DHT22;373;49.342;8.146;2023-12-22T11:27:23;10.70;99.90
780;DHT22;373;49.342;8.146;2023-12-22T11:29:52;10.70;1.00
780;DHT22;373;49.342;8.146;2023-12-22T11:32:20;10.80;99.90
780;DHT22;373;49.342;8.146;2023-12-22T11:34:48;10.80;99.90
780;DHT22;373;49.342;8.146;2023-12-22T11:37:15;10.90;99.90
780;DHT22;373;49.342;8.146;2023-12-22T11:39:43;10.80;1.00
780;DHT22;373;49.342;8.146;2023-12-22T11:42:14;10.70;1.00
780;DHT22;373;49.342;8.146;2023-12-22T11:44:42;10.60;1.00
780;DHT22;373;49.342;8.146;2023-12-22T11:47:10;10.50;1.00
780;DHT22;373;49.342;8.146;2023-12-22T11:49:38;10.50;1.00
780;DHT22;373;49.342;8.146;2023-12-22T11:52:17;10.50;1.00
780;DHT22;373;49.342;8.146;2023-12-22T11:54:46;10.40;1.00
780;DHT22;373;49.342;8.146;2023-12-22T11:57:32;10.40;1.00
780;DHT22;373;49.342;8.146;2023-12-22T12:00:03;10.40;1.00
780;DHT22;373;49.342;8.146;2023-12-22T12:02:39;10.40;19.20
780;DHT22;373;49.342;8.146;2023-12-22T12:05:07;10.40;31.00
780;DHT22;373;49.342;8.146;2023-12-22T12:07:43;10.60;1.00
780;DHT22;373;49.342;8.146;2023-12-22T12:10:50;10.50;1.00
780;DHT22;373;49.342;8.146;2023-12-22T12:13:22;10.60;1.00
780;DHT22;373;49.342;8.146;2023-12-22T12:15:50;10.60;1.00
780;DHT22;373;49.342;8.146;2023-12-22T12:18:21;10.70;1.00
780;DHT22;373;49.342;8.146;2023-12-22T12:20:48;10.70;1.00
780;DHT22;373;49.342;8.146;2023-12-22T12:23:17;10.80;1.00
780;DHT22;373;49.342;8.146;2023-12-22T12:25:44;10.90;1.00
780;DHT22;373;49.342;8.146;2023-12-22T12:28:11;10.90;1.00
780;DHT22;373;49.342;8.146;2023-12-22T12:30:40;11.00;1.00
780;DHT22;373;49.342;8.146;2023-12-22T12:33:08;10.90;1.00
780;DHT22;373;49.342;8.146;2023-12-22T12:35:35;11.00;1.00
780;DHT22;373;49.342;8.146;2023-12-22T12:38:03;10.90;1.00
780;DHT22;373;49.342;8.146;2023-12-22T12:40:32;10.90;1.00
780;DHT22;373;49.342;8.146;2023-12-22T12:43:01;11.00;1.00
780;DHT22;373;49.342;8.146;2023-12-22T12:45:28;10.90;1.00
780;DHT22;373;49.342;8.146;2023-12-22T12:47:56;11.00;1.00
780;DHT22;373;49.342;8.146;2023-12-22T12:50:23;11.00;1.00
780;DHT22;373;49.342;8.146;2023-12-22T12:52:51;11.10;1.00
780;DHT22;373;49.342;8.146;2023-12-22T12:55:20;11.00;1.00
780;DHT22;373;49.342;8.146;2023-12-22T12:57:49;11.00;1.00
780;DHT22;373;49.342;8.146;2023-12-22T13:00:23;11.10;1.00
780;DHT22;373;49.342;8.146;2023-12-22T13:02:51;11.00;1.00
780;DHT22;373;49.342;8.146;2023-12-22T13:05:21;11.00;1.00
780;DHT22;373;49.342;8.146;2023-12-22T13:07:48;11.10;1.00
780;DHT22;373;49.342;8.146;2023-12-22T13:10:21;11.20;1.00
780;DHT22;373;49.342;8.146;2023-12-22T13:12:50;11.30;1.00
780;DHT22;373;49.342;8.146;2023-12-22T13:15:19;11.30;1.00
780;DHT22;373;49.342;8.146;2023-12-22T13:17:47;11.30;1.00
780;DHT22;373;49.342;8.146;2023-12-22T13:20:14;11.50;1.00
780;DHT22;373;49.342;8.146;2023-12-22T13:22:41;11.40;1.00
780;DHT22;373;49.342;8.146;2023-12-22T13:25:08;11.40;1.00
780;DHT22;373;49.342;8.146;2023-12-22T13:27:44;11.40;1.00
780;DHT22;373;49.342;8.146;2023-12-22T13:30:14;11.50;1.00
780;DHT22;373;49.342;8.146;2023-12-22T13:32:41;11.50;1.00
780;DHT22;373;49.342;8.146;2023-12-22T13:35:08;11.60;1.00
780;DHT22;373;49.342;8.146;2023-12-22T13:37:41;11.70;1.00
780;DHT22;373;49.342;8.146;2023-12-22T13:40:09;11.80;1.00
780;DHT22;373;49.342;8.146;2023-12-22T13:42:36;11.80;99.90
780;DHT22;373;49.342;8.146;2023-12-22T13:45:05;11.80;1.00
780;DHT22;373;49.342;8.146;2023-12-22T13:47:41;11.70;1.00
780;DHT22;373;49.342;8.146;2023-12-22T13:50:15;11.80;1.00
780;DHT22;373;49.342;8.146;2023-12-22T13:52:42;11.90;99.90
780;DHT22;373;49.342;8.146;2023-12-22T13:55:11;11.90;99.90
780;DHT22;373;49.342;8.146;2023-12-22T13:57:38;11.80;1.00
780;DHT22;373;49.342;8.146;2023-12-22T14:00:27;11.80;99.90
780;DHT22;373;49.342;8.146;2023-12-22T14:02:56;11.80;99.90
780;DHT22;373;49.342;8.146;2023-12-22T14:05:23;11.80;1.00
780;DHT22;373;49.342;8.146;2023-12-22T14:07:50;11.80;1.00
780;DHT22;373;49.342;8.146;2023-12-22T14:10:17;11.70;1.00
780;DHT22;373;49.342;8.146;2023-12-22T14:12:44;11.80;1.00
780;DHT22;373;49.342;8.146;2023-12-22T14:15:12;11.70;1.00
780;DHT22;373;49.342;8.146;2023-12-22T14:17:39;11.50;1.00
780;DHT22;373;49.342;8.146;2023-12-22T14:20:09;11.50;1.00
780;DHT22;373;49.342;8.146;2023-12-22T14:22:37;11.50;8.40
780;DHT22;373;49.342;8.146;2023-12-22T14:25:05;11.50;1.00
780;DHT22;373;49.342;8.146;2023-12-22T14:27:32;11.40;1.00
780;DHT22;373;49.342;8.146;2023-12-22T14:29:59;11.40;1.00
780;DHT22;373;49.342;8.146;2023-12-22T14:32:26;11.40;1.00
780;DHT22;373;49.342;8.146;2023-12-22T14:34:55;11.40;1.00
780;DHT22;373;49.342;8.146;2023-12-22T14:37:23;11.40;1.00
780;DHT22;373;49.342;8.146;2023-12-22T14:39:51;11.30;1.00
780;DHT22;373;49.342;8.146;2023-12-22T14:42:18;11.20;42.10
780;DHT22;373;49.342;8.146;2023-12-22T14:44:45;11.20;52.70
780;DHT22;373;49.342;8.146;2023-12-22T14:47:12;11.20;24.90
780;DHT22;373;49.342;8.146;2023-12-22T14:49:39;11.10;74.70
780;DHT22;373;49.342;8.146;2023-12-22T14:52:06;11.10;87.60
780;DHT22;373;49.342;8.146;2023-12-22T14:54:35;11.20;99.50
780;DHT22;373;49.342;8.146;2023-12-22T14:57:02;11.20;94.80
780;DHT22;373;49.342;8.146;2023-12-22T14:59:31;11.10;99.90
780;DHT22;373;49.342;8.146;2023-12-22T15:01:58;11.30;62.80
780;DHT22;373;49.342;8.146;2023-12-22T15:04:25;11.10;90.80
780;DHT22;373;49.342;8.146;2023-12-22T15:06:52;11.00;62.90
780;DHT22;373;49.342;8.146;2023-12-22T15:09:19;11.00;76.10
780;DHT22;373;49.342;8.146;2023-12-22T15:11:48;11.00;91.50
780;DHT22;373;49.342;8.146;2023-12-22T15:14:16;11.00;62.10
780;DHT22;373;49.342;8.146;2023-12-22T15:16:43;11.00;1.00
780;DHT22;373;49.342;8.146;2023-12-22T15:19:13;11.10;11.90
780;DHT22;373;49.342;8.146;2023-12-22T15:21:40;11.10;1.00
780;DHT22;373;49.342;8.146;2023-12-22T15:24:07;11.00;1.00
780;DHT22;373;49.342;8.146;2023-12-22T15:26:34;11.20;1.00
780;DHT22;373;49.342;8.146;2023-12-22T15:29:03;11.20;1.00
780;DHT22;373;49.342;8.146;2023-12-22T15:31:30;11.20;1.00
780;DHT22;373;49.342;8.146;2023-12-22T15:34:00;11.20;1.00
780;DHT22;373;49.342;8.146;2023-12-22T15:36:27;11.10;1.00
780;DHT22;373;49.342;8.146;2023-12-22T15:38:55;11.20;1.00
780;DHT22;373;49.342;8.146;2023-12-22T15:41:22;11.20;1.00
780;DHT22;373;49.342;8.146;2023-12-22T15:43:49;11.30;1.00
780;DHT22;373;49.342;8.146;2023-12-22T15:46:17;11.20;1.00
780;DHT22;373;49.342;8.146;2023-12-22T15:48:44;11.10;1.00
780;DHT22;373;49.342;8.146;2023-12-22T15:51:12;11.20;1.00
780;DHT22;373;49.342;8.146;2023-12-22T15:53:40;11.00;1.00
780;DHT22;373;49.342;8.146;2023-12-22T15:56:09;11.20;1.00
780;DHT22;373;49.342;8.146;2023-12-22T15:58:37;11.20;1.00
780;DHT22;373;49.342;8.146;2023-12-22T16:01:06;11.20;1.00
780;DHT22;373;49.342;8.146;2023-12-22T16:03:37;11.20;1.00
780;DHT22;373;49.342;8.146;2023-12-22T16:06:05;11.40;1.00
780;DHT22;373;49.342;8.146;2023-12-22T16:08:32;11.20;1.00
780;DHT22;373;49.342;8.146;2023-12-22T16:11:01;11.20;1.00
780;DHT22;373;49.342;8.146;2023-12-22T16:13:28;11.30;1.00
780;DHT22;373;49.342;8.146;2023-12-22T16:15:56;11.30;1.00
780;DHT22;373;49.342;8.146;2023-12-22T16:18:23;11.30;1.00
780;DHT22;373;49.342;8.146;2023-12-22T16:20:51;11.30;1.00
780;DHT22;373;49.342;8.146;2023-12-22T16:23:18;11.40;1.00
780;DHT22;373;49.342;8.146;2023-12-22T16:25:47;11.40;1.00
780;DHT22;373;49.342;8.146;2023-12-22T16:28:17;11.30;1.00
780;DHT22;373;49.342;8.146;2023-12-22T16:30:44;11.30;1.00
780;DHT22;373;49.342;8.146;2023-12-22T16:33:13;11.40;1.00
780;DHT22;373;49.342;8.146;2023-12-22T16:35:40;11.30;1.00
780;DHT22;373;49.342;8.146;2023-12-22T16:38:08;11.30;1.00
780;DHT22;373;49.342;8.146;2023-12-22T16:40:36;11.30;1.00
780;DHT22;373;49.342;8.146;2023-12-22T16:43:03;11.30;1.00
780;DHT22;373;49.342;8.146;2023-12-22T16:45:30;11.40;1.00
780;DHT22;373;49.342;8.146;2023-12-22T16:47:57;11.40;1.00
780;DHT22;373;49.342;8.146;2023-12-22T16:50:25;11.50;1.00
780;DHT22;373;49.342;8.146;2023-12-22T16:52:52;11.50;1.00
780;DHT22;373;49.342;8.146;2023-12-22T16:55:21;11.50;1.00
780;DHT22;373;49.342;8.146;2023-12-22T16:57:48;11.40;1.00
780;DHT22;373;49.342;8.146;2023-12-22T17:00:16;11.40;1.00